sensor_id;sensor_type;location;lat;lon;timestamp;P1;P2;P0
74880;PMS5003;63427;49.654;6.596;2023-08-17T00:02:06;8;8;
74880;PMS5003;63427;49.654;6.596;2023-08-17T00:04:31;7;7;
74880;PMS5003;63427;49.654;6.596;2023-08-17T00:06:57;5;5;
74880;PMS5003;63427;49.654;6.596;2023-08-17T00:09:22;7;7;
74880;PMS5003;63427;49.654;6.596;2023-08-17T00:11:47;7;6;
74880;PMS5003;63427;49.654;6.596;2023-08-17T00:14:12;7;6;
74880;PMS5003;63427;49.654;6.596;2023-08-17T00:16:38;7;7;
74880;PMS5003;63427;49.654;6.596;2023-08-17T00:19:03;7;7;
74880;PMS5003;63427;49.654;6.596;2023-08-17T00:21:28;7;7;
74880;PMS5003;63427;49.654;6.596;2023-08-17T00:23:53;6;6;
74880;PMS5003;63427;49.654;6.596;2023-08-17T00:26:18;7;7;
74880;PMS5003;63427;49.654;6.596;2023-08-17T00:28:43;6;6;
74880;PMS5003;63427;49.654;6.596;2023-08-17T00:31:09;5;5;
74880;PMS5003;63427;49.654;6.596;2023-08-17T00:33:34;6;6;
74880;PMS5003;63427;49.654;6.596;2023-08-17T00:35:59;7;7;
74880;PMS5003;63427;49.654;6.596;2023-08-17T00:38:24;7;7;
74880;PMS5003;63427;49.654;6.596;2023-08-17T00:40:50;5;5;
74880;PMS5003;63427;49.654;6.596;2023-08-17T00:43:15;7;6;
74880;PMS5003;63427;49.654;6.596;2023-08-17T00:45:40;10;10;
74880;PMS5003;63427;49.654;6.596;2023-08-17T00:48:05;6;6;
74880;PMS5003;63427;49.654;6.596;2023-08-17T00:50:30;6;6;
74880;PMS5003;63427;49.654;6.596;2023-08-17T00:52:56;5;5;
74880;PMS5003;63427;49.654;6.596;2023-08-17T00:55:21;4;4;
74880;PMS5003;63427;49.654;6.596;2023-08-17T00:57:46;5;4;
74880;PMS5003;63427;49.654;6.596;2023-08-17T01:00:12;4;4;
74880;PMS5003;63427;49.654;6.596;2023-08-17T01:02:36;3;3;
74880;PMS5003;63427;49.654;6.596;2023-08-17T01:05:01;5;5;
74880;PMS5003;63427;49.654;6.596;2023-08-17T01:07:26;4;4;
74880;PMS5003;63427;49.654;6.596;2023-08-17T01:09:51;4;4;
74880;PMS5003;63427;49.654;6.596;2023-08-17T01:12:17;2;2;
74880;PMS5003;63427;49.654;6.596;2023-08-17T01:14:45;4;4;
74880;PMS5003;63427;49.654;6.596;2023-08-17T01:17:10;5;5;
74880;PMS5003;63427;49.654;6.596;2023-08-17T01:19:33;4;4;
74880;PMS5003;63427;49.654;6.596;2023-08-17T01:22:00;7;7;
74880;PMS5003;63427;49.654;6.596;2023-08-17T01:24:23;5;5;
74880;PMS5003;63427;49.654;6.596;2023-08-17T01:26:48;5;5;
74880;PMS5003;63427;49.654;6.596;2023-08-17T01:29:13;6;5;
74880;PMS5003;63427;49.654;6.596;2023-08-17T01:31:45;3;3;
74880;PMS5003;63427;49.654;6.596;2023-08-17T01:34:05;6;5;
74880;PMS5003;63427;49.654;6.596;2023-08-17T01:36:30;4;4;
74880;PMS5003;63427;49.654;6.596;2023-08-17T01:38:55;5;5;
74880;PMS5003;63427;49.654;6.596;2023-08-17T01:41:20;5;5;
74880;PMS5003;63427;49.654;6.596;2023-08-17T01:43:45;4;4;
74880;PMS5003;63427;49.654;6.596;2023-08-17T01:46:10;4;4;
74880;PMS5003;63427;49.654;6.596;2023-08-17T01:48:35;4;4;
74880;PMS5003;63427;49.654;6.596;2023-08-17T01:51:00;5;5;
74880;PMS5003;63427;49.654;6.596;2023-08-17T01:53:26;3;3;
74880;PMS5003;63427;49.654;6.596;2023-08-17T01:55:51;6;5;
74880;PMS5003;63427;49.654;6.596;2023-08-17T01:58:16;3;3;
74880;PMS5003;63427;49.654;6.596;2023-08-17T02:00:41;3;3;
74880;PMS5003;63427;49.654;6.596;2023-08-17T02:03:06;3;3;
74880;PMS5003;63427;49.654;6.596;2023-08-17T02:05:31;4;4;
74880;PMS5003;63427;49.654;6.596;2023-08-17T02:07:57;3;3;
74880;PMS5003;63427;49.654;6.596;2023-08-17T02:10:22;5;5;
74880;PMS5003;63427;49.654;6.596;2023-08-17T02:12:47;5;5;
74880;PMS5003;63427;49.654;6.596;2023-08-17T02:15:12;5;5;
74880;PMS5003;63427;49.654;6.596;2023-08-17T02:17:37;4;4;
74880;PMS5003;63427;49.654;6.596;2023-08-17T02:20:03;3;3;
74880;PMS5003;63427;49.654;6.596;2023-08-17T02:22:28;3;3;
74880;PMS5003;63427;49.654;6.596;2023-08-17T02:24:53;3;3;
74880;PMS5003;63427;49.654;6.596;2023-08-17T02:27:18;4;4;
74880;PMS5003;63427;49.654;6.596;2023-08-17T02:29:43;5;5;
74880;PMS5003;63427;49.654;6.596;2023-08-17T02:32:08;4;4;
74880;PMS5003;63427;49.654;6.596;2023-08-17T02:34:33;6;6;
74880;PMS5003;63427;49.654;6.596;2023-08-17T02:36:59;4;4;
74880;PMS5003;63427;49.654;6.596;2023-08-17T02:39:24;5;5;
74880;PMS5003;63427;49.654;6.596;2023-08-17T02:41:49;4;4;
74880;PMS5003;63427;49.654;6.596;2023-08-17T02:44:14;4;4;
74880;PMS5003;63427;49.654;6.596;2023-08-17T02:46:39;5;5;
74880;PMS5003;63427;49.654;6.596;2023-08-17T02:49:05;2;2;
74880;PMS5003;63427;49.654;6.596;2023-08-17T02:51:30;6;6;
74880;PMS5003;63427;49.654;6.596;2023-08-17T02:53:55;5;5;
74880;PMS5003;63427;49.654;6.596;2023-08-17T02:56:20;5;5;
74880;PMS5003;63427;49.654;6.596;2023-08-17T02:58:45;4;4;
74880;PMS5003;63427;49.654;6.596;2023-08-17T03:01:10;5;4;
74880;PMS5003;63427;49.654;6.596;2023-08-17T03:03:36;5;5;
74880;PMS5003;63427;49.654;6.596;2023-08-17T03:06:01;3;3;
74880;PMS5003;63427;49.654;6.596;2023-08-17T03:08:26;4;4;
74880;PMS5003;63427;49.654;6.596;2023-08-17T03:10:51;2;2;
74880;PMS5003;63427;49.654;6.596;2023-08-17T03:13:16;4;4;
74880;PMS5003;63427;49.654;6.596;2023-08-17T03:15:41;4;4;
74880;PMS5003;63427;49.654;6.596;2023-08-17T03:18:07;3;3;
74880;PMS5003;63427;49.654;6.596;2023-08-17T03:20:32;4;4;
74880;PMS5003;63427;49.654;6.596;2023-08-17T03:22:57;4;4;
74880;PMS5003;63427;49.654;6.596;2023-08-17T03:25:22;4;4;
74880;PMS5003;63427;49.654;6.596;2023-08-17T03:27:47;5;5;
74880;PMS5003;63427;49.654;6.596;2023-08-17T03:30:13;4;4;
74880;PMS5003;63427;49.654;6.596;2023-08-17T03:32:38;4;4;
74880;PMS5003;63427;49.654;6.596;2023-08-17T03:35:03;5;5;
74880;PMS5003;63427;49.654;6.596;2023-08-17T03:37:29;3;3;
74880;PMS5003;63427;49.654;6.596;2023-08-17T03:39:54;3;3;
74880;PMS5003;63427;49.654;6.596;2023-08-17T03:42:19;3;3;
74880;PMS5003;63427;49.654;6.596;2023-08-17T03:44:44;5;5;
74880;PMS5003;63427;49.654;6.596;2023-08-17T03:47:09;5;5;
74880;PMS5003;63427;49.654;6.596;2023-08-17T03:49:34;4;4;
74880;PMS5003;63427;49.654;6.596;2023-08-17T03:52:00;5;5;
74880;PMS5003;63427;49.654;6.596;2023-08-17T03:54:25;4;4;
74880;PMS5003;63427;49.654;6.596;2023-08-17T03:56:50;4;4;
74880;PMS5003;63427;49.654;6.596;2023-08-17T03:59:15;5;5;
74880;PMS5003;63427;49.654;6.596;2023-08-17T04:01:41;6;5;
74880;PMS5003;63427;49.654;6.596;2023-08-17T04:04:05;5;5;
74880;PMS5003;63427;49.654;6.596;2023-08-17T04:06:31;5;5;
74880;PMS5003;63427;49.654;6.596;2023-08-17T04:08:56;4;4;
74880;PMS5003;63427;49.654;6.596;2023-08-17T04:11:21;3;3;
74880;PMS5003;63427;49.654;6.596;2023-08-17T04:13:46;5;5;
74880;PMS5003;63427;49.654;6.596;2023-08-17T04:16:11;4;4;
74880;PMS5003;63427;49.654;6.596;2023-08-17T04:18:36;4;4;
74880;PMS5003;63427;49.654;6.596;2023-08-17T04:21:02;3;3;
74880;PMS5003;63427;49.654;6.596;2023-08-17T04:23:27;4;4;
74880;PMS5003;63427;49.654;6.596;2023-08-17T04:25:52;5;5;
74880;PMS5003;63427;49.654;6.596;2023-08-17T04:28:17;6;6;
74880;PMS5003;63427;49.654;6.596;2023-08-17T04:30:42;6;6;
74880;PMS5003;63427;49.654;6.596;2023-08-17T04:33:08;4;4;
74880;PMS5003;63427;49.654;6.596;2023-08-17T04:35:33;4;4;
74880;PMS5003;63427;49.654;6.596;2023-08-17T04:37:58;5;5;
74880;PMS5003;63427;49.654;6.596;2023-08-17T04:40:24;6;6;
74880;PMS5003;63427;49.654;6.596;2023-08-17T04:42:49;6;5;
74880;PMS5003;63427;49.654;6.596;2023-08-17T04:45:14;6;6;
74880;PMS5003;63427;49.654;6.596;2023-08-17T04:47:39;5;5;
74880;PMS5003;63427;49.654;6.596;2023-08-17T04:50:05;5;5;
74880;PMS5003;63427;49.654;6.596;2023-08-17T04:52:30;5;5;
74880;PMS5003;63427;49.654;6.596;2023-08-17T04:54:55;6;5;
74880;PMS5003;63427;49.654;6.596;2023-08-17T04:57:20;5;5;
74880;PMS5003;63427;49.654;6.596;2023-08-17T04:59:45;5;5;
74880;PMS5003;63427;49.654;6.596;2023-08-17T05:02:10;4;4;
74880;PMS5003;63427;49.654;6.596;2023-08-17T05:04:36;3;3;
74880;PMS5003;63427;49.654;6.596;2023-08-17T05:07:01;6;6;
74880;PMS5003;63427;49.654;6.596;2023-08-17T05:09:26;4;4;
74880;PMS5003;63427;49.654;6.596;2023-08-17T05:11:51;4;4;
74880;PMS5003;63427;49.654;6.596;2023-08-17T05:14:16;5;5;
74880;PMS5003;63427;49.654;6.596;2023-08-17T05:16:41;4;4;
74880;PMS5003;63427;49.654;6.596;2023-08-17T05:19:07;4;4;
74880;PMS5003;63427;49.654;6.596;2023-08-17T05:21:32;2;2;
74880;PMS5003;63427;49.654;6.596;2023-08-17T05:23:57;6;6;
74880;PMS5003;63427;49.654;6.596;2023-08-17T05:26:22;3;3;
74880;PMS5003;63427;49.654;6.596;2023-08-17T05:28:47;4;4;
74880;PMS5003;63427;49.654;6.596;2023-08-17T05:31:12;4;4;
74880;PMS5003;63427;49.654;6.596;2023-08-17T05:33:37;4;4;
74880;PMS5003;63427;49.654;6.596;2023-08-17T05:36:03;3;3;
74880;PMS5003;63427;49.654;6.596;2023-08-17T05:38:28;4;4;
74880;PMS5003;63427;49.654;6.596;2023-08-17T05:40:54;3;3;
74880;PMS5003;63427;49.654;6.596;2023-08-17T05:43:18;3;3;
74880;PMS5003;63427;49.654;6.596;2023-08-17T05:45:43;3;2;
74880;PMS5003;63427;49.654;6.596;2023-08-17T05:48:08;3;3;
74880;PMS5003;63427;49.654;6.596;2023-08-17T05:50:34;3;3;
74880;PMS5003;63427;49.654;6.596;2023-08-17T05:52:59;2;2;
74880;PMS5003;63427;49.654;6.596;2023-08-17T05:55:24;1;1;
74880;PMS5003;63427;49.654;6.596;2023-08-17T05:57:49;2;2;
74880;PMS5003;63427;49.654;6.596;2023-08-17T06:00:14;2;2;
74880;PMS5003;63427;49.654;6.596;2023-08-17T06:02:39;3;3;
74880;PMS5003;63427;49.654;6.596;2023-08-17T06:05:05;3;2;
74880;PMS5003;63427;49.654;6.596;2023-08-17T06:07:30;2;2;
74880;PMS5003;63427;49.654;6.596;2023-08-17T06:09:55;3;3;
74880;PMS5003;63427;49.654;6.596;2023-08-17T06:12:20;3;3;
74880;PMS5003;63427;49.654;6.596;2023-08-17T06:14:45;2;2;
74880;PMS5003;63427;49.654;6.596;2023-08-17T06:17:10;2;2;
74880;PMS5003;63427;49.654;6.596;2023-08-17T06:19:35;1;1;
74880;PMS5003;63427;49.654;6.596;2023-08-17T06:22:00;2;2;
74880;PMS5003;63427;49.654;6.596;2023-08-17T06:24:26;1;1;
74880;PMS5003;63427;49.654;6.596;2023-08-17T06:26:51;3;3;
74880;PMS5003;63427;49.654;6.596;2023-08-17T06:29:16;2;2;
74880;PMS5003;63427;49.654;6.596;2023-08-17T06:31:41;3;3;
74880;PMS5003;63427;49.654;6.596;2023-08-17T06:34:06;2;2;
74880;PMS5003;63427;49.654;6.596;2023-08-17T06:36:31;2;2;
74880;PMS5003;63427;49.654;6.596;2023-08-17T06:38:56;3;3;
74880;PMS5003;63427;49.654;6.596;2023-08-17T06:41:21;2;2;
74880;PMS5003;63427;49.654;6.596;2023-08-17T06:43:47;2;2;
74880;PMS5003;63427;49.654;6.596;2023-08-17T06:46:12;2;2;
74880;PMS5003;63427;49.654;6.596;2023-08-17T06:48:37;2;2;
74880;PMS5003;63427;49.654;6.596;2023-08-17T06:51:02;1;1;
74880;PMS5003;63427;49.654;6.596;2023-08-17T06:53:27;1;1;
74880;PMS5003;63427;49.654;6.596;2023-08-17T06:55:52;2;2;
74880;PMS5003;63427;49.654;6.596;2023-08-17T06:58:17;2;2;
74880;PMS5003;63427;49.654;6.596;2023-08-17T07:00:42;1;1;
74880;PMS5003;63427;49.654;6.596;2023-08-17T07:03:07;3;3;
74880;PMS5003;63427;49.654;6.596;2023-08-17T07:05:32;1;1;
74880;PMS5003;63427;49.654;6.596;2023-08-17T07:07:57;1;1;
74880;PMS5003;63427;49.654;6.596;2023-08-17T07:10:23;1;1;
74880;PMS5003;63427;49.654;6.596;2023-08-17T07:12:48;3;2;
74880;PMS5003;63427;49.654;6.596;2023-08-17T07:15:13;2;2;
74880;PMS5003;63427;49.654;6.596;2023-08-17T07:17:38;2;2;
74880;PMS5003;63427;49.654;6.596;2023-08-17T07:20:03;2;2;
74880;PMS5003;63427;49.654;6.596;2023-08-17T07:22:28;1;1;
74880;PMS5003;63427;49.654;6.596;2023-08-17T07:24:53;1;1;
74880;PMS5003;63427;49.654;6.596;2023-08-17T07:27:18;2;2;
74880;PMS5003;63427;49.654;6.596;2023-08-17T07:29:43;1;1;
74880;PMS5003;63427;49.654;6.596;2023-08-17T07:32:08;2;2;
74880;PMS5003;63427;49.654;6.596;2023-08-17T07:34:33;2;2;
74880;PMS5003;63427;49.654;6.596;2023-08-17T07:36:58;1;1;
74880;PMS5003;63427;49.654;6.596;2023-08-17T07:39:23;2;2;
74880;PMS5003;63427;49.654;6.596;2023-08-17T07:41:48;3;3;
74880;PMS5003;63427;49.654;6.596;2023-08-17T07:44:13;1;1;
74880;PMS5003;63427;49.654;6.596;2023-08-17T07:46:38;3;3;
74880;PMS5003;63427;49.654;6.596;2023-08-17T07:49:03;4;4;
74880;PMS5003;63427;49.654;6.596;2023-08-17T07:51:28;4;4;
74880;PMS5003;63427;49.654;6.596;2023-08-17T07:53:53;4;4;
74880;PMS5003;63427;49.654;6.596;2023-08-17T07:56:18;5;5;
74880;PMS5003;63427;49.654;6.596;2023-08-17T07:58:44;3;3;
74880;PMS5003;63427;49.654;6.596;2023-08-17T08:01:08;5;5;
74880;PMS5003;63427;49.654;6.596;2023-08-17T08:03:33;5;5;
74880;PMS5003;63427;49.654;6.596;2023-08-17T08:05:59;5;5;
74880;PMS5003;63427;49.654;6.596;2023-08-17T08:08:24;5;5;
74880;PMS5003;63427;49.654;6.596;2023-08-17T08:10:49;4;4;
74880;PMS5003;63427;49.654;6.596;2023-08-17T08:13:14;6;6;
74880;PMS5003;63427;49.654;6.596;2023-08-17T08:15:41;5;5;
74880;PMS5003;63427;49.654;6.596;2023-08-17T08:18:06;6;6;
74880;PMS5003;63427;49.654;6.596;2023-08-17T08:20:32;6;6;
74880;PMS5003;63427;49.654;6.596;2023-08-17T08:22:58;5;5;
74880;PMS5003;63427;49.654;6.596;2023-08-17T08:25:24;6;6;
74880;PMS5003;63427;49.654;6.596;2023-08-17T08:27:49;4;4;
74880;PMS5003;63427;49.654;6.596;2023-08-17T08:30:15;5;5;
74880;PMS5003;63427;49.654;6.596;2023-08-17T08:32:41;7;7;
74880;PMS5003;63427;49.654;6.596;2023-08-17T08:35:07;8;8;
74880;PMS5003;63427;49.654;6.596;2023-08-17T08:37:33;7;6;
74880;PMS5003;63427;49.654;6.596;2023-08-17T08:39:58;7;7;
74880;PMS5003;63427;49.654;6.596;2023-08-17T08:42:24;8;8;
74880;PMS5003;63427;49.654;6.596;2023-08-17T08:44:50;9;9;
74880;PMS5003;63427;49.654;6.596;2023-08-17T08:47:16;6;6;
74880;PMS5003;63427;49.654;6.596;2023-08-17T08:49:44;8;8;
74880;PMS5003;63427;49.654;6.596;2023-08-17T08:52:07;7;7;
74880;PMS5003;63427;49.654;6.596;2023-08-17T08:54:33;9;9;
74880;PMS5003;63427;49.654;6.596;2023-08-17T08:57:00;7;7;
74880;PMS5003;63427;49.654;6.596;2023-08-17T08:59:25;9;9;
74880;PMS5003;63427;49.654;6.596;2023-08-17T09:01:50;9;9;
74880;PMS5003;63427;49.654;6.596;2023-08-17T09:04:16;7;7;
74880;PMS5003;63427;49.654;6.596;2023-08-17T09:06:42;8;8;
74880;PMS5003;63427;49.654;6.596;2023-08-17T09:09:07;11;10;
74880;PMS5003;63427;49.654;6.596;2023-08-17T09:11:33;8;8;
74880;PMS5003;63427;49.654;6.596;2023-08-17T09:13:59;8;8;
74880;PMS5003;63427;49.654;6.596;2023-08-17T09:16:24;10;10;
74880;PMS5003;63427;49.654;6.596;2023-08-17T09:18:51;10;10;
74880;PMS5003;63427;49.654;6.596;2023-08-17T09:21:21;8;8;
74880;PMS5003;63427;49.654;6.596;2023-08-17T09:23:41;8;8;
74880;PMS5003;63427;49.654;6.596;2023-08-17T09:26:08;9;8;
74880;PMS5003;63427;49.654;6.596;2023-08-17T09:28:33;7;7;
74880;PMS5003;63427;49.654;6.596;2023-08-17T09:30:59;10;10;
74880;PMS5003;63427;49.654;6.596;2023-08-17T09:33:25;9;9;
74880;PMS5003;63427;49.654;6.596;2023-08-17T09:35:53;8;8;
74880;PMS5003;63427;49.654;6.596;2023-08-17T09:38:17;7;7;
74880;PMS5003;63427;49.654;6.596;2023-08-17T09:40:43;8;8;
74880;PMS5003;63427;49.654;6.596;2023-08-17T09:43:09;9;9;
74880;PMS5003;63427;49.654;6.596;2023-08-17T09:45:35;9;9;
74880;PMS5003;63427;49.654;6.596;2023-08-17T09:48:00;9;9;
74880;PMS5003;63427;49.654;6.596;2023-08-17T09:50:25;9;9;
74880;PMS5003;63427;49.654;6.596;2023-08-17T09:52:52;6;6;
74880;PMS5003;63427;49.654;6.596;2023-08-17T09:55:17;8;8;
74880;PMS5003;63427;49.654;6.596;2023-08-17T09:57:42;8;8;
74880;PMS5003;63427;49.654;6.596;2023-08-17T10:00:08;9;9;
74880;PMS5003;63427;49.654;6.596;2023-08-17T10:02:33;9;9;
74880;PMS5003;63427;49.654;6.596;2023-08-17T10:04:59;8;7;
74880;PMS5003;63427;49.654;6.596;2023-08-17T10:07:28;10;9;
74880;PMS5003;63427;49.654;6.596;2023-08-17T10:09:53;9;9;
74880;PMS5003;63427;49.654;6.596;2023-08-17T10:12:16;9;9;
74880;PMS5003;63427;49.654;6.596;2023-08-17T10:14:43;9;9;
74880;PMS5003;63427;49.654;6.596;2023-08-17T10:17:07;8;8;
74880;PMS5003;63427;49.654;6.596;2023-08-17T10:19:35;11;10;
74880;PMS5003;63427;49.654;6.596;2023-08-17T10:22:05;7;7;
74880;PMS5003;63427;49.654;6.596;2023-08-17T10:24:23;6;6;
74880;PMS5003;63427;49.654;6.596;2023-08-17T10:26:49;8;8;
74880;PMS5003;63427;49.654;6.596;2023-08-17T10:29:15;8;8;
74880;PMS5003;63427;49.654;6.596;2023-08-17T10:31:40;11;10;
74880;PMS5003;63427;49.654;6.596;2023-08-17T10:34:06;8;8;
74880;PMS5003;63427;49.654;6.596;2023-08-17T10:36:32;8;8;
74880;PMS5003;63427;49.654;6.596;2023-08-17T10:41:23;7;7;
74880;PMS5003;63427;49.654;6.596;2023-08-17T10:43:54;9;9;
74880;PMS5003;63427;49.654;6.596;2023-08-17T10:46:15;7;7;
74880;PMS5003;63427;49.654;6.596;2023-08-17T10:48:41;8;8;
74880;PMS5003;63427;49.654;6.596;2023-08-17T10:51:05;7;7;
74880;PMS5003;63427;49.654;6.596;2023-08-17T10:55:57;7;7;
74880;PMS5003;63427;49.654;6.596;2023-08-17T10:58:22;9;9;
74880;PMS5003;63427;49.654;6.596;2023-08-17T11:00:48;9;9;
74880;PMS5003;63427;49.654;6.596;2023-08-17T11:03:17;9;9;
74880;PMS5003;63427;49.654;6.596;2023-08-17T11:05:42;10;10;
74880;PMS5003;63427;49.654;6.596;2023-08-17T11:08:06;8;8;
74880;PMS5003;63427;49.654;6.596;2023-08-17T11:10:31;10;10;
74880;PMS5003;63427;49.654;6.596;2023-08-17T11:12:57;8;8;
74880;PMS5003;63427;49.654;6.596;2023-08-17T11:15:23;10;10;
74880;PMS5003;63427;49.654;6.596;2023-08-17T11:17:48;9;9;
74880;PMS5003;63427;49.654;6.596;2023-08-17T11:20:14;9;9;
74880;PMS5003;63427;49.654;6.596;2023-08-17T11:22:39;9;9;
74880;PMS5003;63427;49.654;6.596;2023-08-17T11:25:05;9;9;
74880;PMS5003;63427;49.654;6.596;2023-08-17T11:27:31;8;8;
74880;PMS5003;63427;49.654;6.596;2023-08-17T11:29:56;8;8;
74880;PMS5003;63427;49.654;6.596;2023-08-17T11:32:22;12;11;
74880;PMS5003;63427;49.654;6.596;2023-08-17T11:34:48;10;10;
74880;PMS5003;63427;49.654;6.596;2023-08-17T11:37:13;8;8;
74880;PMS5003;63427;49.654;6.596;2023-08-17T11:39:39;8;8;
74880;PMS5003;63427;49.654;6.596;2023-08-17T11:42:04;8;8;
74880;PMS5003;63427;49.654;6.596;2023-08-17T11:44:30;8;8;
74880;PMS5003;63427;49.654;6.596;2023-08-17T11:46:56;10;10;
74880;PMS5003;63427;49.654;6.596;2023-08-17T11:49:21;10;9;
74880;PMS5003;63427;49.654;6.596;2023-08-17T11:51:47;8;8;
74880;PMS5003;63427;49.654;6.596;2023-08-17T11:54:12;9;9;
74880;PMS5003;63427;49.654;6.596;2023-08-17T11:56:38;8;8;
74880;PMS5003;63427;49.654;6.596;2023-08-17T11:59:09;9;9;
74880;PMS5003;63427;49.654;6.596;2023-08-17T12:01:32;9;9;
74880;PMS5003;63427;49.654;6.596;2023-08-17T12:03:55;9;8;
74880;PMS5003;63427;49.654;6.596;2023-08-17T12:06:20;9;9;
74880;PMS5003;63427;49.654;6.596;2023-08-17T12:08:46;8;8;
74880;PMS5003;63427;49.654;6.596;2023-08-17T12:11:11;10;9;
74880;PMS5003;63427;49.654;6.596;2023-08-17T12:13:37;9;8;
74880;PMS5003;63427;49.654;6.596;2023-08-17T12:16:02;9;9;
74880;PMS5003;63427;49.654;6.596;2023-08-17T12:18:28;10;10;
74880;PMS5003;63427;49.654;6.596;2023-08-17T12:20:54;8;8;
74880;PMS5003;63427;49.654;6.596;2023-08-17T12:23:19;9;9;
74880;PMS5003;63427;49.654;6.596;2023-08-17T12:25:44;8;8;
74880;PMS5003;63427;49.654;6.596;2023-08-17T12:28:12;9;9;
74880;PMS5003;63427;49.654;6.596;2023-08-17T12:30:35;7;7;
74880;PMS5003;63427;49.654;6.596;2023-08-17T12:33:01;8;8;
74880;PMS5003;63427;49.654;6.596;2023-08-17T12:35:26;8;7;
74880;PMS5003;63427;49.654;6.596;2023-08-17T12:37:52;7;7;
74880;PMS5003;63427;49.654;6.596;2023-08-17T12:40:17;8;7;
74880;PMS5003;63427;49.654;6.596;2023-08-17T12:42:42;7;7;
74880;PMS5003;63427;49.654;6.596;2023-08-17T12:45:08;8;8;
74880;PMS5003;63427;49.654;6.596;2023-08-17T12:47:33;8;8;
74880;PMS5003;63427;49.654;6.596;2023-08-17T12:49:59;8;8;
74880;PMS5003;63427;49.654;6.596;2023-08-17T12:52:24;7;7;
74880;PMS5003;63427;49.654;6.596;2023-08-17T12:54:50;9;9;
74880;PMS5003;63427;49.654;6.596;2023-08-17T12:57:15;9;9;
74880;PMS5003;63427;49.654;6.596;2023-08-17T12:59:41;9;9;
74880;PMS5003;63427;49.654;6.596;2023-08-17T13:02:06;8;8;
74880;PMS5003;63427;49.654;6.596;2023-08-17T13:04:32;8;8;
74880;PMS5003;63427;49.654;6.596;2023-08-17T13:06:57;9;9;
74880;PMS5003;63427;49.654;6.596;2023-08-17T13:09:23;10;10;
74880;PMS5003;63427;49.654;6.596;2023-08-17T13:11:48;7;7;
74880;PMS5003;63427;49.654;6.596;2023-08-17T13:14:14;8;8;
74880;PMS5003;63427;49.654;6.596;2023-08-17T13:16:39;8;8;
74880;PMS5003;63427;49.654;6.596;2023-08-17T13:19:05;7;7;
74880;PMS5003;63427;49.654;6.596;2023-08-17T13:21:30;8;8;
74880;PMS5003;63427;49.654;6.596;2023-08-17T13:23:56;8;8;
74880;PMS5003;63427;49.654;6.596;2023-08-17T13:26:21;9;9;
74880;PMS5003;63427;49.654;6.596;2023-08-17T13:28:47;8;8;
74880;PMS5003;63427;49.654;6.596;2023-08-17T13:31:12;9;9;
74880;PMS5003;63427;49.654;6.596;2023-08-17T13:33:38;10;10;
74880;PMS5003;63427;49.654;6.596;2023-08-17T13:36:04;10;9;
74880;PMS5003;63427;49.654;6.596;2023-08-17T13:38:29;10;10;
74880;PMS5003;63427;49.654;6.596;2023-08-17T13:40:54;11;11;
74880;PMS5003;63427;49.654;6.596;2023-08-17T13:43:20;9;9;
74880;PMS5003;63427;49.654;6.596;2023-08-17T13:45:45;8;8;
74880;PMS5003;63427;49.654;6.596;2023-08-17T13:48:11;9;8;
74880;PMS5003;63427;49.654;6.596;2023-08-17T13:50:37;9;9;
74880;PMS5003;63427;49.654;6.596;2023-08-17T13:53:02;8;8;
74880;PMS5003;63427;49.654;6.596;2023-08-17T13:55:28;10;10;
74880;PMS5003;63427;49.654;6.596;2023-08-17T13:57:53;7;7;
74880;PMS5003;63427;49.654;6.596;2023-08-17T14:00:19;9;9;
74880;PMS5003;63427;49.654;6.596;2023-08-17T14:02:44;8;8;
74880;PMS5003;63427;49.654;6.596;2023-08-17T14:05:09;8;8;
74880;PMS5003;63427;49.654;6.596;2023-08-17T14:07:35;10;10;
74880;PMS5003;63427;49.654;6.596;2023-08-17T14:10:00;9;9;
74880;PMS5003;63427;49.654;6.596;2023-08-17T14:12:26;8;8;
74880;PMS5003;63427;49.654;6.596;2023-08-17T14:14:51;8;8;
74880;PMS5003;63427;49.654;6.596;2023-08-17T14:17:17;8;8;
74880;PMS5003;63427;49.654;6.596;2023-08-17T14:19:42;8;8;
74880;PMS5003;63427;49.654;6.596;2023-08-17T14:22:07;8;8;
74880;PMS5003;63427;49.654;6.596;2023-08-17T14:24:32;6;6;
74880;PMS5003;63427;49.654;6.596;2023-08-17T14:26:58;8;8;
74880;PMS5003;63427;49.654;6.596;2023-08-17T14:29:23;7;7;
74880;PMS5003;63427;49.654;6.596;2023-08-17T14:31:49;7;7;
74880;PMS5003;63427;49.654;6.596;2023-08-17T14:34:14;6;6;
74880;PMS5003;63427;49.654;6.596;2023-08-17T14:36:39;7;7;
74880;PMS5003;63427;49.654;6.596;2023-08-17T14:39:05;7;7;
74880;PMS5003;63427;49.654;6.596;2023-08-17T14:41:30;8;8;
74880;PMS5003;63427;49.654;6.596;2023-08-17T14:43:55;8;8;
74880;PMS5003;63427;49.654;6.596;2023-08-17T14:46:21;9;9;
74880;PMS5003;63427;49.654;6.596;2023-08-17T14:48:46;7;7;
74880;PMS5003;63427;49.654;6.596;2023-08-17T14:51:11;8;8;
74880;PMS5003;63427;49.654;6.596;2023-08-17T14:53:37;7;7;
74880;PMS5003;63427;49.654;6.596;2023-08-17T14:56:02;7;7;
74880;PMS5003;63427;49.654;6.596;2023-08-17T14:58:27;10;10;
74880;PMS5003;63427;49.654;6.596;2023-08-17T15:00:53;9;9;
74880;PMS5003;63427;49.654;6.596;2023-08-17T15:03:18;7;7;
74880;PMS5003;63427;49.654;6.596;2023-08-17T15:05:43;7;7;
74880;PMS5003;63427;49.654;6.596;2023-08-17T15:08:09;7;7;
74880;PMS5003;63427;49.654;6.596;2023-08-17T15:10:34;9;9;
74880;PMS5003;63427;49.654;6.596;2023-08-17T15:12:59;9;9;
74880;PMS5003;63427;49.654;6.596;2023-08-17T15:15:25;9;9;
74880;PMS5003;63427;49.654;6.596;2023-08-17T15:17:50;7;7;
74880;PMS5003;63427;49.654;6.596;2023-08-17T15:20:15;9;9;
74880;PMS5003;63427;49.654;6.596;2023-08-17T15:22:41;6;6;
74880;PMS5003;63427;49.654;6.596;2023-08-17T15:25:11;8;8;
74880;PMS5003;63427;49.654;6.596;2023-08-17T15:27:32;8;8;
74880;PMS5003;63427;49.654;6.596;2023-08-17T15:29:57;8;8;
74880;PMS5003;63427;49.654;6.596;2023-08-17T15:32:22;6;6;
74880;PMS5003;63427;49.654;6.596;2023-08-17T15:34:47;9;9;
74880;PMS5003;63427;49.654;6.596;2023-08-17T15:37:12;9;9;
74880;PMS5003;63427;49.654;6.596;2023-08-17T15:39:38;9;9;
74880;PMS5003;63427;49.654;6.596;2023-08-17T15:42:03;6;6;
74880;PMS5003;63427;49.654;6.596;2023-08-17T15:44:28;10;10;
74880;PMS5003;63427;49.654;6.596;2023-08-17T15:46:54;6;6;
74880;PMS5003;63427;49.654;6.596;2023-08-17T15:49:19;8;8;
74880;PMS5003;63427;49.654;6.596;2023-08-17T15:51:45;6;6;
74880;PMS5003;63427;49.654;6.596;2023-08-17T15:54:10;8;8;
74880;PMS5003;63427;49.654;6.596;2023-08-17T15:56:35;7;7;
74880;PMS5003;63427;49.654;6.596;2023-08-17T15:59:01;9;9;
74880;PMS5003;63427;49.654;6.596;2023-08-17T16:01:26;10;10;
74880;PMS5003;63427;49.654;6.596;2023-08-17T16:03:52;8;8;
74880;PMS5003;63427;49.654;6.596;2023-08-17T16:06:17;7;7;
74880;PMS5003;63427;49.654;6.596;2023-08-17T16:08:43;8;8;
74880;PMS5003;63427;49.654;6.596;2023-08-17T16:11:07;7;7;
74880;PMS5003;63427;49.654;6.596;2023-08-17T16:13:33;10;10;
74880;PMS5003;63427;49.654;6.596;2023-08-17T16:15:58;7;7;
74880;PMS5003;63427;49.654;6.596;2023-08-17T16:18:24;10;10;
74880;PMS5003;63427;49.654;6.596;2023-08-17T16:20:49;8;8;
74880;PMS5003;63427;49.654;6.596;2023-08-17T16:23:14;7;7;
74880;PMS5003;63427;49.654;6.596;2023-08-17T16:25:40;10;10;
74880;PMS5003;63427;49.654;6.596;2023-08-17T16:28:05;8;8;
74880;PMS5003;63427;49.654;6.596;2023-08-17T16:30:36;9;9;
74880;PMS5003;63427;49.654;6.596;2023-08-17T16:32:56;9;9;
74880;PMS5003;63427;49.654;6.596;2023-08-17T16:37:47;8;8;
74880;PMS5003;63427;49.654;6.596;2023-08-17T17:19:01;12;11;
74880;PMS5003;63427;49.654;6.596;2023-08-17T17:21:26;8;8;